Garrison, ND

10:16 PM CST on February 26, 2015 (GMT -0600)
Downtown Garrison, ND | Change Station
CLOSE
Current Station
Personal Weather Station
Location: Garrison, ND
Elevation: 1929 ft
Nearby Weather Stations
Active Advisory: Wind Chill Advisory

Elev 1929 ft 47.65 °N, 101.41 °W | Updated 8 minutes ago

Clear
Clear
-8.7 °F
Feels Like -9 °F
N
1.1
Wind Variable Wind from NNW

Today
High -- | Low -- °F
--% Chance of Precip.
Yesterday
High -- | Low -- °F
Precip. -- in
7:32 AM 6:25 PM
Waxing Gibbous, 65% visible
Pressure 30.50 in
Visibility 10.0 miles
Clouds Mostly Cloudy 1500 ft
Windchill -9 °F
Dew Point -11 °F
Humidity 88%
Rainfall 0.00 in
Snow Depth Not available.
UV 0 out of 12
Pollen .10 out of 12
Air Quality Not available.
Flu Activity Not available.
METAR KHZE 270355Z AUTO 20003KT 10SM BKN015 M22/M26 A3050 RMK AO2

More Conditions Fewer Conditions

Pressure 30.50 in
Visibility 10.0 miles
Clouds Mostly Cloudy 1500 ft
Windchill -9 °F
Dew Point -11 °F
Humidity 88%
Rainfall 0.00 in
Snow Depth Not available.
UV 0 out of 12
Pollen .10 out of 12
Air Quality Not available.
Flu Activity Not available.
METAR KHZE 270355Z AUTO 20003KT 10SM BKN015 M22/M26 A3050 RMK AO2

More Conditions Fewer Conditions

10-Day Weather Forecast

Almanac

Astronomy

Feb. 26, 2015 Rise Set
Actual Time
Civil Twilight
Nautical Twilight
Astronomical Twilight
Moon
Length of Visible Light
Length of Day
Tomorrow will be .
, % of the Moon is Illuminated

Today's Extremes

State Highs State Lows

Community

WunderPhotos

Upload Photos

1,800,620 photos uploaded!

WunderBlogs® & News

Nearby

Air Quality

  Air Quality AQ Index Pollutant
Not available.

Snow Depth

Station Depth Elevation

Earthquake Activity

City Distance Mag. Time & Date
Minimum magnitude displayed is 2.5.

Coastal Water Temperatures

Place Temperature

Nearby Weather Stations

Wind Chill Advisory
Statement as of 9:40 PM CST on February 26, 2015

... Wind Chill Advisory remains in effect until 10 am CST Friday...

* wind chill values... around 30 below zero.

* Other impacts... frost bite and hypothermia possible.

Precautionary/preparedness actions...

A Wind Chill Advisory means the combination of wind and very cold
air will create low wind chills. This will result in frost bite
and lead to hypothermia if precautions are not taken. If you must
venture outdoors... make sure you wear a hat and gloves.